Time;durP1;ratioP1;P1;durP2;ratioP2;P2;SDS_P1;SDS_P2;PMS_P1;PMS_P2;Temp;Humidity;BMP_temperature;BMP_pressure;BME280_temperature;BME280_humidity;BME280_pressure;Samples;Min_cycle;Max_cycle;Signal;HPM_P1;HPM_P2
2022/08/25 00:06:01;;;;;;;3.08;1.40;;;22.10;68.20;;;;;;6190765;28;20050;-77
2022/08/25 00:09:03;;;;;;;4.95;1.45;;;22.10;68.60;;;;;;6198687;28;20050;-77
2022/08/25 00:12:06;;;;;;;2.30;1.08;;;22.10;68.90;;;;;;6198810;28;20431;-77
2022/08/25 00:15:10;;;;;;;2.47;1.15;;;22.00;69.00;;;;;;6199609;28;20124;-77
2022/08/25 00:18:11;;;;;;;3.53;1.88;;;22.00;69.60;;;;;;6198667;28;20046;-77
2022/08/25 00:21:14;;;;;;;3.72;1.77;;;21.90;69.80;;;;;;6187189;28;20050;-77
2022/08/25 00:24:18;;;;;;;2.13;1.38;;;21.90;69.80;;;;;;6190551;28;20042;-77
2022/08/25 00:27:20;;;;;;;1.45;1.00;;;21.90;69.90;;;;;;6198314;28;20548;-77
2022/08/25 00:30:24;;;;;;;1.92;1.30;;;21.90;70.20;;;;;;6197837;28;20058;-76
2022/08/25 00:33:26;;;;;;;1.58;1.10;;;21.80;70.50;;;;;;6197840;28;20415;-75
2022/08/25 00:36:28;;;;;;;4.47;0.95;;;21.80;70.60;;;;;;6197221;28;20124;-77
2022/08/25 00:39:30;;;;;;;5.95;1.35;;;21.80;70.80;;;;;;6196944;28;20056;-77
2022/08/25 00:42:32;;;;;;;4.22;1.52;;;21.80;71.20;;;;;;6196916;28;20080;-76
2022/08/25 00:45:36;;;;;;;3.92;1.77;;;21.70;71.60;;;;;;6197601;28;20047;-76
2022/08/25 00:48:41;;;;;;;2.58;1.40;;;21.60;72.30;;;;;;6196729;28;20054;-77
2022/08/25 00:51:46;;;;;;;2.20;0.98;;;21.60;72.50;;;;;;6197128;28;20126;-76
2022/08/25 00:54:52;;;;;;;2.65;1.27;;;21.60;72.70;;;;;;6197284;28;20054;-76
2022/08/25 00:57:57;;;;;;;1.73;1.08;;;21.50;73.50;;;;;;6197573;28;20054;-76
2022/08/25 01:01:00;;;;;;;1.95;1.20;;;21.40;73.50;;;;;;6201645;28;20046;-76
2022/08/25 01:04:02;;;;;;;7.20;1.30;;;21.40;73.90;;;;;;6201265;28;20399;-77
2022/08/25 01:07:06;;;;;;;4.10;1.50;;;21.30;75.20;;;;;;6201568;28;20051;-77
2022/08/25 01:10:09;;;;;;;2.53;1.23;;;21.40;76.10;;;;;;6201454;28;20053;-77
2022/08/25 01:13:16;;;;;;;2.10;1.52;;;21.30;76.60;;;;;;6201177;28;20047;-77
2022/08/25 01:16:20;;;;;;;4.22;1.45;;;21.40;77.50;;;;;;6201234;28;20042;-77
2022/08/25 01:19:22;;;;;;;2.22;1.35;;;21.40;77.80;;;;;;6207436;28;20136;-76
2022/08/25 01:22:26;;;;;;;1.42;0.85;;;21.50;78.00;;;;;;6222543;28;20056;-76
2022/08/25 01:25:36;;;;;;;2.80;1.75;;;21.50;77.80;;;;;;6225591;28;20484;-75
2022/08/25 01:29:19;;;;;;;3.58;1.52;;;21.60;78.20;;;;;;6224717;28;20056;-76
2022/08/25 01:32:02;;;;;;;3.85;1.25;;;21.60;77.90;;;;;;6224992;28;20045;-76
2022/08/25 01:35:04;;;;;;;1.20;0.95;;;21.60;77.30;;;;;;6224889;28;20056;-77
2022/08/25 01:38:08;;;;;;;2.22;1.50;;;21.60;76.90;;;;;;6225042;28;20507;-75
2022/08/25 01:41:09;;;;;;;2.95;1.15;;;21.60;76.80;;;;;;6223951;28;20056;-75
2022/08/25 01:44:11;;;;;;;1.80;1.27;;;21.70;77.30;;;;;;6224884;28;20054;-76
2022/08/25 01:47:14;;;;;;;4.53;1.50;;;21.60;77.30;;;;;;6224693;28;20057;-76
2022/08/25 01:50:16;;;;;;;3.60;1.02;;;21.60;77.00;;;;;;6224855;28;20058;-77
2022/08/25 01:53:23;;;;;;;3.38;1.52;;;21.60;76.80;;;;;;6225310;28;20049;-77
2022/08/25 01:56:24;;;;;;;1.55;1.35;;;21.50;77.00;;;;;;6224554;28;20042;-76
2022/08/25 01:59:27;;;;;;;2.35;1.30;;;21.40;77.40;;;;;;6224375;28;20052;-76
2022/08/25 02:02:29;;;;;;;3.20;1.30;;;21.30;77.40;;;;;;6224187;28;20046;-76
2022/08/25 02:05:30;;;;;;;2.35;1.50;;;21.30;77.70;;;;;;6224687;28;20050;-77
2022/08/25 02:08:35;;;;;;;2.85;1.33;;;21.20;77.80;;;;;;6223960;28;20050;-76
2022/08/25 02:11:38;;;;;;;1.65;0.98;;;21.20;77.80;;;;;;6223366;28;20400;-76
2022/08/25 02:14:40;;;;;;;2.90;1.63;;;21.10;78.00;;;;;;6224083;28;20412;-75
2022/08/25 02:17:41;;;;;;;3.47;1.40;;;21.10;78.20;;;;;;6224234;28;20045;-77
2022/08/25 02:20:43;;;;;;;2.20;1.42;;;21.10;78.90;;;;;;6221174;28;20041;-76
2022/08/25 02:23:47;;;;;;;5.13;1.95;;;21.00;79.00;;;;;;6223452;28;20057;-76
2022/08/25 02:26:49;;;;;;;1.38;1.08;;;21.00;79.00;;;;;;6223884;28;20050;-75
2022/08/25 02:29:51;;;;;;;4.60;2.03;;;20.90;80.20;;;;;;6223609;28;20180;-77
2022/08/25 02:32:53;;;;;;;8.40;1.60;;;20.80;80.00;;;;;;6223703;28;20046;-76
2022/08/25 02:35:58;;;;;;;5.68;2.20;;;20.90;80.20;;;;;;6223483;28;20042;-75
2022/08/25 02:39:01;;;;;;;4.13;1.70;;;20.90;80.40;;;;;;6223600;28;20405;-77
2022/08/25 02:42:03;;;;;;;2.53;1.70;;;20.80;80.30;;;;;;6223791;28;20050;-75
2022/08/25 02:45:06;;;;;;;2.13;1.42;;;20.70;80.70;;;;;;6223392;28;20049;-76
2022/08/25 02:48:08;;;;;;;3.30;1.70;;;20.70;81.20;;;;;;6222845;28;20522;-76
2022/08/25 02:51:11;;;;;;;4.72;1.92;;;20.60;81.60;;;;;;6223430;28;20164;-76
2022/08/25 02:54:14;;;;;;;2.20;1.40;;;20.60;81.90;;;;;;6223948;28;20058;-77
2022/08/25 02:57:16;;;;;;;6.18;1.63;;;20.50;82.40;;;;;;6223142;28;20054;-77
2022/08/25 03:00:19;;;;;;;4.40;1.60;;;20.50;82.30;;;;;;6222974;28;20519;-76
2022/08/25 03:03:21;;;;;;;2.75;1.77;;;20.50;82.10;;;;;;6223183;28;20061;-77
2022/08/25 03:06:23;;;;;;;1.80;1.10;;;20.40;82.90;;;;;;6222939;28;20132;-75
2022/08/25 03:09:27;;;;;;;2.72;1.50;;;20.40;82.30;;;;;;6223076;28;20050;-77
2022/08/25 03:12:29;;;;;;;2.00;1.42;;;20.40;82.30;;;;;;6222770;28;20554;-75
2022/08/25 03:15:31;;;;;;;2.47;1.95;;;20.40;82.50;;;;;;6222988;28;20053;-77
2022/08/25 03:18:34;;;;;;;4.90;1.65;;;20.30;82.30;;;;;;6222181;28;20442;-76
2022/08/25 03:21:37;;;;;;;8.93;1.95;;;20.30;82.30;;;;;;6216454;28;20050;-76
2022/08/25 03:24:40;;;;;;;4.15;1.55;;;20.20;82.40;;;;;;6221933;28;20054;-75
2022/08/25 03:27:41;;;;;;;4.38;1.70;;;20.20;82.50;;;;;;6221956;28;20526;-77
2022/08/25 03:30:43;;;;;;;2.22;1.25;;;20.20;82.70;;;;;;6222393;28;20050;-76
2022/08/25 03:33:45;;;;;;;3.60;1.65;;;20.20;82.80;;;;;;6222712;28;20117;-77
2022/08/25 03:36:50;;;;;;;2.70;1.63;;;20.10;82.80;;;;;;6222408;28;20065;-77
2022/08/25 03:39:54;;;;;;;5.55;1.85;;;20.10;83.30;;;;;;6222115;28;20130;-75
2022/08/25 03:42:56;;;;;;;3.28;2.10;;;20.10;84.10;;;;;;6222398;28;20052;-77
2022/08/25 03:45:57;;;;;;;3.53;1.73;;;20.10;83.90;;;;;;6222489;28;20046;-76
2022/08/25 03:49:02;;;;;;;6.30;1.83;;;20.00;84.00;;;;;;6221559;28;20050;-76
2022/08/25 03:52:04;;;;;;;8.40;2.63;;;20.00;84.20;;;;;;6221964;28;20503;-76
2022/08/25 03:55:11;;;;;;;6.45;2.25;;;20.00;84.50;;;;;;6221887;28;20125;-76
2022/08/25 03:58:14;;;;;;;7.85;2.30;;;20.00;84.50;;;;;;6222097;28;20060;-76
2022/08/25 04:01:16;;;;;;;6.20;2.35;;;20.00;84.70;;;;;;6221875;28;20050;-77
2022/08/25 04:04:18;;;;;;;4.45;2.13;;;20.00;84.90;;;;;;6221987;28;20046;-76
2022/08/25 04:07:19;;;;;;;4.65;1.90;;;20.00;85.10;;;;;;6221352;28;20050;-77
2022/08/25 04:10:22;;;;;;;2.67;1.88;;;20.00;85.30;;;;;;6221852;28;20053;-76
2022/08/25 04:13:24;;;;;;;7.00;2.20;;;19.90;85.40;;;;;;6222244;28;20060;-77
2022/08/25 04:16:29;;;;;;;2.33;1.70;;;19.90;85.60;;;;;;6221757;28;20057;-76
2022/08/25 04:19:31;;;;;;;4.43;2.13;;;19.90;86.00;;;;;;6221301;28;20046;-76
2022/08/25 04:22:33;;;;;;;5.43;1.83;;;19.90;86.20;;;;;;6217918;28;20056;-78
2022/08/25 04:25:40;;;;;;;5.03;1.92;;;19.90;86.50;;;;;;6220904;28;20042;-77
2022/08/25 04:28:42;;;;;;;5.25;1.30;;;19.80;86.90;;;;;;6221304;28;20569;-76
2022/08/25 04:31:46;;;;;;;5.95;1.85;;;19.80;87.00;;;;;;6221521;28;20041;-77
2022/08/25 04:34:48;;;;;;;5.32;1.95;;;19.80;87.30;;;;;;6225203;28;20455;-76
2022/08/25 04:37:49;;;;;;;3.65;2.38;;;19.90;87.70;;;;;;6226547;28;20108;-77
2022/08/25 04:40:57;;;;;;;2.47;1.70;;;19.90;87.70;;;;;;6226220;28;20071;-77
2022/08/25 04:44:00;;;;;;;3.60;2.17;;;19.90;88.60;;;;;;6226613;28;20050;-74
2022/08/25 04:47:02;;;;;;;4.35;2.13;;;19.90;88.60;;;;;;6226104;28;20045;-77
2022/08/25 04:50:04;;;;;;;4.05;2.05;;;20.10;88.40;;;;;;6226196;28;20064;-78
2022/08/25 04:53:06;;;;;;;6.88;1.50;;;20.00;88.20;;;;;;6225953;28;20050;-77
2022/08/25 04:56:12;;;;;;;3.00;1.90;;;20.00;88.50;;;;;;6225861;28;20038;-77
2022/08/25 04:59:15;;;;;;;3.33;1.88;;;20.10;88.50;;;;;;6225642;28;20053;-76
2022/08/25 05:02:17;;;;;;;8.27;1.65;;;20.20;88.30;;;;;;6225918;28;20499;-75
2022/08/25 05:05:18;;;;;;;2.70;1.70;;;20.30;88.20;;;;;;6225919;28;20053;-77
2022/08/25 05:08:20;;;;;;;5.63;2.17;;;20.40;88.00;;;;;;6225288;28;20499;-75
2022/08/25 05:11:24;;;;;;;6.18;2.03;;;20.50;87.80;;;;;;6225515;28;20050;-76
2022/08/25 05:14:26;;;;;;;4.95;1.83;;;20.60;88.10;;;;;;6225580;28;20406;-75
2022/08/25 05:17:27;;;;;;;2.22;1.95;;;20.70;88.00;;;;;;6225657;28;20050;-76
2022/08/25 05:20:29;;;;;;;4.28;1.65;;;20.90;87.80;;;;;;6220730;28;20065;-76
2022/08/25 05:23:32;;;;;;;2.88;1.50;;;21.00;87.20;;;;;;6208575;28;20124;-76
2022/08/25 05:26:37;;;;;;;4.72;1.58;;;21.30;86.50;;;;;;6224578;28;20057;-76
2022/08/25 05:29:38;;;;;;;4.55;1.65;;;21.50;85.60;;;;;;6224998;28;20050;-77
2022/08/25 05:32:40;;;;;;;2.88;2.10;;;21.80;84.80;;;;;;6227951;28;20046;-77
2022/08/25 05:35:43;;;;;;;2.80;1.83;;;22.00;83.80;;;;;;6227129;28;20048;-77
2022/08/25 05:38:44;;;;;;;3.63;1.48;;;22.20;82.70;;;;;;6227193;28;20508;-77
2022/08/25 05:41:47;;;;;;;7.80;2.10;;;22.30;82.10;;;;;;6227593;28;20050;-77
2022/08/25 05:44:49;;;;;;;3.45;2.67;;;22.40;81.70;;;;;;6225482;28;20042;-77
2022/08/25 05:47:51;;;;;;;2.45;1.50;;;22.50;81.20;;;;;;6226763;28;20050;-77
2022/08/25 05:50:54;;;;;;;6.28;2.20;;;22.70;80.30;;;;;;6226634;28;20056;-76
2022/08/25 05:53:55;;;;;;;6.75;2.45;;;22.80;79.80;;;;;;6226924;28;20530;-76
2022/08/25 05:56:59;;;;;;;3.10;2.05;;;23.10;79.10;;;;;;6226671;28;20091;-77
2022/08/25 06:00:01;;;;;;;5.90;1.92;;;23.70;77.00;;;;;;6226720;28;20500;-77
2022/08/25 06:03:02;;;;;;;4.43;2.03;;;24.70;74.00;;;;;;6226436;28;20443;-77
2022/08/25 06:06:06;;;;;;;2.50;1.42;;;25.80;69.20;;;;;;6227103;28;20054;-77
2022/08/25 06:09:08;;;;;;;3.78;1.80;;;25.90;67.80;;;;;;6227136;28;20056;-78
2022/08/25 06:12:12;;;;;;;2.88;1.70;;;25.60;68.30;;;;;;6226614;28;20050;-76
2022/08/25 06:15:19;;;;;;;6.28;1.95;;;25.30;68.70;;;;;;6227589;28;20046;-77
2022/08/25 06:18:21;;;;;;;2.63;1.77;;;25.10;69.40;;;;;;6226395;28;20057;-77
2022/08/25 06:21:23;;;;;;;4.97;1.70;;;25.00;69.70;;;;;;6200297;28;20053;-75
2022/08/25 06:24:26;;;;;;;2.28;1.55;;;25.00;70.00;;;;;;6212220;28;20045;-76
2022/08/25 06:27:29;;;;;;;4.55;1.77;;;25.30;69.50;;;;;;6204417;28;20050;-78
2022/08/25 06:30:31;;;;;;;4.28;2.03;;;25.70;68.20;;;;;;6202734;28;20065;-79
2022/08/25 06:33:33;;;;;;;5.60;1.85;;;25.90;67.20;;;;;;6203208;28;20046;-79
2022/08/25 06:36:35;;;;;;;3.63;1.70;;;26.10;66.80;;;;;;6202826;28;20053;-79
2022/08/25 06:39:36;;;;;;;4.65;1.80;;;26.60;65.60;;;;;;6201985;28;20053;-78
2022/08/25 06:42:39;;;;;;;3.78;1.58;;;27.20;63.60;;;;;;6202424;28;20038;-77
2022/08/25 06:45:42;;;;;;;2.80;1.85;;;28.00;61.50;;;;;;6203009;28;20057;-79
2022/08/25 06:48:44;;;;;;;4.60;1.77;;;28.90;58.50;;;;;;6203287;28;20057;-79
2022/08/25 06:51:46;;;;;;;6.35;2.05;;;30.00;56.20;;;;;;6202249;28;20053;-80
2022/08/25 06:54:48;;;;;;;3.70;1.70;;;31.50;53.20;;;;;;6203119;28;20057;-79
2022/08/25 06:57:53;;;;;;;6.13;1.85;;;33.00;49.90;;;;;;6202464;28;20046;-80
2022/08/25 07:00:55;;;;;;;2.70;1.63;;;33.50;47.50;;;;;;6203501;28;20057;-79
2022/08/25 07:03:58;;;;;;;2.17;1.40;;;33.80;46.90;;;;;;6202942;28;20050;-80
2022/08/25 07:07:01;;;;;;;6.22;2.20;;;33.40;46.70;;;;;;6202414;28;20185;-79
2022/08/25 07:10:03;;;;;;;3.80;1.75;;;32.90;47.10;;;;;;6201381;28;20054;-77
2022/08/25 07:13:06;;;;;;;14.48;1.85;;;32.30;48.10;;;;;;6202232;28;20416;-79
2022/08/25 07:16:10;;;;;;;4.15;1.67;;;31.90;49.20;;;;;;6201955;28;20042;-79
2022/08/25 07:19:11;;;;;;;3.78;1.67;;;31.90;49.70;;;;;;6201505;28;20082;-79
2022/08/25 07:22:13;;;;;;;5.35;1.83;;;32.40;49.10;;;;;;6221064;28;20050;-79
2022/08/25 07:25:15;;;;;;;7.45;2.13;;;32.50;48.30;;;;;;6225610;28;20041;-79
2022/08/25 07:28:18;;;;;;;2.58;1.70;;;32.50;48.40;;;;;;6224148;28;20065;-78
2022/08/25 07:31:20;;;;;;;3.95;1.67;;;32.50;47.90;;;;;;6226029;28;20046;-79
2022/08/25 07:37:41;;;;;;;2.63;1.48;;;32.40;48.10;;;;;;6226176;28;20042;-78
2022/08/25 07:40:43;;;;;;;2.97;1.55;;;32.60;47.80;;;;;;6225756;28;20045;-78
2022/08/25 07:43:47;;;;;;;6.13;1.45;;;33.00;46.90;;;;;;6225693;28;20046;-79
2022/08/25 07:46:50;;;;;;;3.13;1.80;;;33.30;46.20;;;;;;6225068;28;20050;-76
2022/08/25 07:49:52;;;;;;;4.50;1.60;;;33.40;45.80;;;;;;6225275;28;20518;-77
2022/08/25 07:52:54;;;;;;;3.25;1.88;;;34.10;45.30;;;;;;6225490;28;20052;-78
2022/08/25 07:55:55;;;;;;;4.53;1.60;;;35.00;43.90;;;;;;6225629;28;20056;-77
2022/08/25 07:58:58;;;;;;;3.08;1.65;;;35.60;42.80;;;;;;6225420;28;20512;-79
2022/08/25 08:02:00;;;;;;;5.10;1.80;;;35.90;42.30;;;;;;6228386;28;20054;-80
2022/08/25 08:05:02;;;;;;;3.45;1.55;;;35.40;42.50;;;;;;6222875;28;20069;-78
2022/08/25 08:08:04;;;;;;;5.25;2.47;;;34.20;44.10;;;;;;6227488;28;20057;-79
2022/08/25 08:11:06;;;;;;;7.38;1.90;;;33.30;46.00;;;;;;6221318;28;20081;-79
2022/08/25 08:14:09;;;;;;;4.93;2.00;;;32.60;46.90;;;;;;6226439;28;20054;-79
2022/08/25 08:17:11;;;;;;;4.03;1.55;;;32.20;48.10;;;;;;6226183;28;20046;-78
2022/08/25 08:20:13;;;;;;;3.60;2.15;;;32.20;48.40;;;;;;6225601;28;20041;-79
2022/08/25 08:23:16;;;;;;;2.78;1.65;;;32.10;48.40;;;;;;6225105;28;20062;-79
2022/08/25 08:26:18;;;;;;;3.17;2.03;;;31.90;48.30;;;;;;6224227;28;20057;-79
2022/08/25 08:29:22;;;;;;;2.97;1.88;;;31.70;49.00;;;;;;6225414;28;20053;-79
2022/08/25 08:32:23;;;;;;;3.88;1.85;;;31.80;49.00;;;;;;6225771;28;20416;-80
2022/08/25 08:35:25;;;;;;;3.33;1.40;;;32.00;48.40;;;;;;6219998;28;20047;-79
2022/08/25 08:38:27;;;;;;;5.57;1.88;;;31.90;48.20;;;;;;6223142;28;20718;-79
2022/08/25 08:45:30;;;;;;;5.32;1.90;;;31.70;48.40;;;;;;6226622;28;20065;-79
2022/08/25 08:48:54;;;;;;;4.57;1.83;;;31.60;47.30;;;;;;6225840;28;20050;-77
2022/08/25 08:52:00;;;;;;;4.00;2.15;;;31.40;47.90;;;;;;6227517;28;20060;-78
2022/08/25 08:55:09;;;;;;;6.38;1.98;;;31.60;48.50;;;;;;6229964;28;20057;-77
2022/08/25 08:58:17;;;;;;;2.72;1.95;;;31.90;48.20;;;;;;6225938;28;20049;-80
2022/08/25 09:01:29;;;;;;;;;;;31.70;48.80;;;;;;6201851;28;20488;-79
2022/08/25 09:04:38;;;;;;;3.63;2.08;;;31.70;48.40;;;;;;6211805;28;19922;-80
2022/08/25 09:07:44;;;;;;;2.03;1.27;;;31.90;48.50;;;;;;6223813;28;20078;-80
2022/08/25 09:10:57;;;;;;;3.78;2.13;;;31.90;47.20;;;;;;6219413;28;20046;-80
2022/08/25 09:14:10;;;;;;;4.25;1.83;;;32.20;47.50;;;;;;6202030;28;20054;-78
2022/08/25 09:17:22;;;;;;;3.47;1.60;;;32.30;47.40;;;;;;6199404;28;20043;-79
2022/08/25 09:20:37;;;;;;;2.38;1.50;;;32.60;46.60;;;;;;6204024;28;20052;-79
2022/08/25 09:24:03;;;;;;;7.93;1.50;;;32.70;45.70;;;;;;6205544;28;20046;-79
2022/08/25 09:27:13;;;;;;;2.97;1.83;;;32.50;45.80;;;;;;6204813;28;20116;-80
2022/08/25 09:30:16;;;;;;;5.38;1.80;;;32.50;46.10;;;;;;6205982;28;20052;-80
2022/08/25 09:33:23;;;;;;;2.58;1.67;;;32.50;46.20;;;;;;6205998;28;20424;-79
2022/08/25 09:36:25;;;;;;;2.08;1.80;;;32.40;46.10;;;;;;6196763;28;20042;-80
2022/08/25 09:39:27;;;;;;;2.03;1.65;;;32.30;45.90;;;;;;6214367;28;20049;-80
2022/08/25 09:42:48;;;;;;;4.30;1.70;;;32.20;45.90;;;;;;6229041;28;20133;-80
2022/08/25 09:45:58;;;;;;;6.40;1.95;;;32.50;46.50;;;;;;6229836;28;20057;-79
2022/08/25 09:49:12;;;;;;;2.75;1.98;;;32.80;45.00;;;;;;6228742;28;20570;-80
2022/08/25 09:52:26;;;;;;;5.75;1.77;;;33.20;44.70;;;;;;6229447;28;20049;-78
2022/08/25 09:55:33;;;;;;;2.60;1.50;;;34.10;42.80;;;;;;6229071;28;20042;-80
2022/08/25 09:58:34;;;;;;;3.28;2.00;;;34.50;42.40;;;;;;6228783;28;20091;-80
2022/08/25 10:01:49;;;;;;;2.42;1.60;;;34.30;42.10;;;;;;6229787;28;20053;-79
2022/08/25 10:04:52;;;;;;;3.08;1.90;;;34.10;42.80;;;;;;6221415;28;20046;-80
2022/08/25 10:07:57;;;;;;;2.60;1.90;;;34.10;42.50;;;;;;6211386;28;20054;-80
2022/08/25 10:11:01;;;;;;;2.40;1.50;;;33.80;42.90;;;;;;6205597;28;20538;-79
2022/08/25 10:14:06;;;;;;;2.67;1.40;;;33.90;42.60;;;;;;6205285;28;20058;-80
2022/08/25 10:17:15;;;;;;;3.78;1.73;;;33.70;42.70;;;;;;6204663;28;20050;-80
2022/08/25 10:20:21;;;;;;;4.57;2.08;;;33.40;43.20;;;;;;6206773;28;20057;-80
2022/08/25 10:23:27;;;;;;;1.98;1.33;;;33.60;43.10;;;;;;6205162;28;20056;-78
2022/08/25 10:26:40;;;;;;;2.20;1.17;;;33.70;42.20;;;;;;6205034;28;20526;-80
2022/08/25 10:30:00;;;;;;;3.45;1.17;;;33.60;42.60;;;;;;6204191;28;20133;-79
2022/08/25 10:33:15;;;;;;;2.25;1.10;;;33.90;42.00;;;;;;6202974;28;20046;-78
2022/08/25 10:36:22;;;;;;;3.60;1.77;;;33.60;42.00;;;;;;6214780;28;20048;-80
2022/08/25 10:39:39;;;;;;;5.13;2.08;;;33.30;42.30;;;;;;6203575;28;20050;-80
2022/08/25 10:42:48;;;;;;;2.05;1.42;;;33.20;42.70;;;;;;6204027;28;20046;-80
2022/08/25 10:45:56;;;;;;;6.70;2.00;;;33.60;42.20;;;;;;6203841;28;20053;-79
2022/08/25 10:49:03;;;;;;;;;;;33.60;42.20;;;;;;6204184;28;20050;-80
2022/08/25 10:52:16;;;;;;;2.28;1.63;;;33.70;41.80;;;;;;6203590;28;19922;-80
2022/08/25 10:55:25;;;;;;;5.70;1.70;;;33.90;41.80;;;;;;6203890;28;20057;-80
2022/08/25 10:58:45;;;;;;;3.75;1.45;;;34.10;41.70;;;;;;6202925;28;20262;-79
2022/08/25 11:02:27;;;;;;;4.00;1.80;;;34.20;41.40;;;;;;6204626;28;20057;-78
2022/08/25 11:05:35;;;;;;;6.70;1.50;;;34.10;41.10;;;;;;6216959;28;20050;-79
2022/08/25 11:08:42;;;;;;;1.58;1.23;;;34.50;40.70;;;;;;6227341;28;20050;-78
2022/08/25 11:11:50;;;;;;;2.00;1.50;;;34.40;40.50;;;;;;6227436;28;20046;-80
2022/08/25 11:14:55;;;;;;;;;;;34.00;41.20;;;;;;6229185;28;20056;-80
2022/08/25 11:17:59;;;;;;;3.35;1.77;;;34.10;40.90;;;;;;6225410;28;20350;-77
2022/08/25 11:21:08;;;;;;;1.83;1.67;;;34.60;41.40;;;;;;6222868;28;20048;-78
2022/08/25 11:24:25;;;;;;;2.42;2.00;;;35.10;40.00;;;;;;6207603;28;20043;-78
2022/08/25 11:27:34;;;;;;;5.13;1.98;;;35.00;39.80;;;;;;6198141;28;20050;-77
2022/08/25 11:30:37;;;;;;;3.70;1.33;;;35.40;39.50;;;;;;6198315;28;20057;-77
2022/08/25 11:33:38;;;;;;;2.92;1.98;;;35.70;38.70;;;;;;6194263;28;20058;-78
2022/08/25 11:36:43;;;;;;;4.63;1.75;;;35.70;38.80;;;;;;6182000;28;20046;-78
2022/08/25 11:40:24;;;;;;;4.70;1.90;;;35.80;38.60;;;;;;6173814;28;20054;-79
2022/08/25 11:43:37;;;;;;;4.38;1.50;;;36.00;38.40;;;;;;6171032;28;20047;-78
2022/08/25 11:46:50;;;;;;;1.98;1.63;;;35.90;38.20;;;;;;6174351;28;20051;-78
2022/08/25 11:49:57;;;;;;;2.60;1.48;;;36.00;38.10;;;;;;6174265;28;20421;-78
2022/08/25 11:53:16;;;;;;;4.80;1.80;;;35.80;38.00;;;;;;6173818;28;20057;-78
2022/08/25 11:56:32;;;;;;;3.10;1.63;;;35.80;37.90;;;;;;6174017;28;20513;-78
2022/08/25 12:00:08;;;;;;;3.47;1.90;;;35.80;39.30;;;;;;6174304;28;20046;-77
2022/08/25 12:04:00;;;;;;;1.98;1.58;;;36.20;38.10;;;;;;6174636;28;20516;-79
2022/08/25 12:07:26;;;;;;;1.80;1.38;;;36.60;37.10;;;;;;6182167;28;20147;-79
2022/08/25 12:10:57;;;;;;;2.33;1.58;;;36.70;36.90;;;;;;6174715;28;20061;-78
2022/08/25 12:14:15;;;;;;;3.15;1.38;;;36.30;37.10;;;;;;6176552;28;20055;-79
2022/08/25 12:17:28;;;;;;;2.08;1.30;;;36.40;37.40;;;;;;6201985;28;20405;-78
2022/08/25 12:21:03;;;;;;;2.13;1.65;;;36.60;36.70;;;;;;6206378;28;20050;-79
2022/08/25 12:24:13;;;;;;;3.88;1.40;;;35.70;37.60;;;;;;6229233;28;20042;-80
2022/08/25 12:27:26;;;;;;;2.17;1.40;;;35.40;37.80;;;;;;6230227;28;20052;-78
2022/08/25 12:30:39;;;;;;;1.40;1.13;;;35.70;37.90;;;;;;6226214;28;20045;-79
2022/08/25 12:33:58;;;;;;;1.75;1.30;;;35.70;37.00;;;;;;6198277;28;20062;-78
2022/08/25 12:37:04;;;;;;;2.47;1.60;;;35.80;37.20;;;;;;6181796;28;20050;-79
2022/08/25 12:40:06;;;;;;;3.03;1.30;;;35.80;36.70;;;;;;6173084;28;20101;-79
2022/08/25 12:43:21;;;;;;;2.10;1.27;;;36.40;36.80;;;;;;6173480;28;20046;-79
2022/08/25 12:46:36;;;;;;;3.50;1.20;;;36.90;36.00;;;;;;6173532;28;20054;-79
2022/08/25 12:49:37;;;;;;;1.45;1.33;;;36.60;36.20;;;;;;6173873;28;20058;-78
2022/08/25 12:52:39;;;;;;;5.32;1.67;;;36.60;36.20;;;;;;6173302;28;20420;-78
2022/08/25 12:55:46;;;;;;;2.45;1.33;;;36.80;35.80;;;;;;6176844;28;20046;-79
2022/08/25 12:58:54;;;;;;;3.33;1.42;;;37.20;35.40;;;;;;6178552;28;20051;-77
2022/08/25 13:02:26;;;;;;;1.90;1.55;;;37.40;34.80;;;;;;6178250;28;20051;-79
2022/08/25 13:05:52;;;;;;;2.50;1.27;;;37.30;35.10;;;;;;6214058;28;20049;-79
2022/08/25 13:09:37;;;;;;;2.03;1.10;;;37.40;34.80;;;;;;6201233;28;20373;-79
2022/08/25 13:12:46;;;;;;;3.20;1.42;;;37.00;34.90;;;;;;6203411;28;20050;-77
2022/08/25 13:15:59;;;;;;;2.95;1.60;;;37.00;35.10;;;;;;6206009;28;20054;-78
2022/08/25 13:19:06;;;;;;;1.30;1.00;;;37.20;34.90;;;;;;6203511;28;20073;-79
2022/08/25 13:22:13;;;;;;;1.83;1.20;;;37.50;34.40;;;;;;6202242;28;20058;-78
2022/08/25 13:25:17;;;;;;;5.07;1.50;;;38.10;33.60;;;;;;6201430;28;20042;-78
2022/08/25 13:28:24;;;;;;;4.05;1.27;;;37.90;33.70;;;;;;6200815;28;20047;-78
2022/08/25 13:31:28;;;;;;;;;;;37.80;34.20;;;;;;6201879;28;20625;-78
2022/08/25 13:34:32;;;;;;;5.32;1.33;;;37.70;34.20;;;;;;6207038;28;20012;-79
2022/08/25 13:37:34;;;;;;;4.47;0.95;;;37.60;34.00;;;;;;6224587;28;20053;-78
2022/08/25 13:40:36;;;;;;;2.38;1.40;;;37.20;34.60;;;;;;6225227;28;20123;-78
2022/08/25 13:43:39;;;;;;;1.30;1.00;;;37.10;34.30;;;;;;6225591;28;20538;-78
2022/08/25 13:46:44;;;;;;;1.65;1.10;;;37.40;34.20;;;;;;6225637;28;20054;-79
2022/08/25 13:49:47;;;;;;;3.40;0.95;;;37.60;34.00;;;;;;6225914;28;20046;-79
2022/08/25 13:52:52;;;;;;;1.55;0.98;;;38.00;33.90;;;;;;6205306;28;20054;-78
2022/08/25 13:55:58;;;;;;;2.50;1.00;;;38.30;33.40;;;;;;6201585;28;20052;-78
2022/08/25 13:59:01;;;;;;;2.50;1.05;;;38.50;33.20;;;;;;6201546;28;20058;-78
2022/08/25 14:02:07;;;;;;;3.25;1.10;;;38.50;33.10;;;;;;6201570;28;20065;-79
2022/08/25 14:05:10;;;;;;;3.30;1.17;;;38.30;33.30;;;;;;6192232;28;20050;-79
2022/08/25 14:08:30;;;;;;;2.00;1.00;;;38.20;33.30;;;;;;6196112;28;20042;-78
2022/08/25 14:11:42;;;;;;;3.90;1.25;;;38.20;33.00;;;;;;6200731;28;20042;-78
2022/08/25 14:14:58;;;;;;;4.82;1.75;;;38.40;33.00;;;;;;6202845;28;20519;-79
2022/08/25 14:18:05;;;;;;;2.15;1.17;;;38.20;33.30;;;;;;6202143;28;20421;-80
2022/08/25 14:21:11;;;;;;;3.20;1.35;;;38.00;33.30;;;;;;6200621;28;20046;-77
2022/08/25 14:24:16;;;;;;;0.95;0.70;;;37.60;33.80;;;;;;6200121;28;20053;-78
2022/08/25 14:27:18;;;;;;;3.90;1.35;;;37.30;34.10;;;;;;6201870;28;20578;-78
2022/08/25 14:30:20;;;;;;;3.72;1.17;;;37.10;34.60;;;;;;6196847;28;20046;-78
2022/08/25 14:33:26;;;;;;;4.38;1.25;;;37.20;34.50;;;;;;6202643;28;20058;-77
2022/08/25 14:36:30;;;;;;;3.63;1.38;;;37.30;34.70;;;;;;6194088;28;20051;-79
2022/08/25 14:39:32;;;;;;;1.38;1.20;;;37.70;34.50;;;;;;6179501;28;20055;-79
2022/08/25 14:42:33;;;;;;;3.20;1.23;;;38.10;33.90;;;;;;6180034;28;20062;-79
2022/08/25 14:45:38;;;;;;;2.33;0.82;;;38.00;33.50;;;;;;6180359;28;20493;-79
2022/08/25 14:48:45;;;;;;;3.55;1.02;;;37.60;33.90;;;;;;6179132;28;20049;-79
2022/08/25 14:51:48;;;;;;;1.25;0.68;;;37.60;34.00;;;;;;6178423;28;20058;-76
2022/08/25 14:54:50;;;;;;;3.20;1.50;;;37.20;33.90;;;;;;6177391;28;20420;-78
2022/08/25 14:57:51;;;;;;;2.67;1.40;;;36.60;34.80;;;;;;6178037;28;20047;-78
2022/08/25 15:00:54;;;;;;;1.23;0.80;;;36.50;34.90;;;;;;6177473;28;20054;-76
2022/08/25 15:04:01;;;;;;;5.70;1.40;;;36.10;35.20;;;;;;6183843;28;20046;-77
2022/08/25 15:09:06;;;;;;;1.38;1.05;;;35.50;35.80;;;;;;6171345;28;20076;-78
2022/08/25 15:10:25;;;;;;;4.60;1.38;;;35.40;36.00;;;;;;6211569;28;20074;-76
2022/08/25 15:13:27;;;;;;;1.45;0.90;;;35.20;36.30;;;;;;6200895;28;20058;-77
2022/08/25 15:16:31;;;;;;;2.25;1.00;;;35.20;36.50;;;;;;6200479;28;20042;-78
2022/08/25 15:19:35;;;;;;;2.47;1.02;;;35.20;36.40;;;;;;6200108;28;20505;-78
2022/08/25 15:22:37;;;;;;;2.78;1.08;;;35.20;36.50;;;;;;6200759;28;20053;-78
2022/08/25 15:25:41;;;;;;;3.55;1.23;;;35.20;36.20;;;;;;6200620;28;20050;-78
2022/08/25 15:28:47;;;;;;;5.07;2.28;;;34.90;36.60;;;;;;6201453;28;20038;-80
2022/08/25 15:31:49;;;;;;;0.83;0.63;;;35.00;36.80;;;;;;6203970;28;20061;-79
2022/08/25 15:34:53;;;;;;;5.70;1.40;;;35.50;36.30;;;;;;6209667;28;20602;-79
2022/08/25 15:37:55;;;;;;;3.10;1.58;;;35.80;35.80;;;;;;6225105;28;20057;-78
2022/08/25 15:40:56;;;;;;;1.67;1.10;;;35.70;35.60;;;;;;6226165;28;20050;-79
2022/08/25 15:43:58;;;;;;;3.55;1.40;;;35.90;35.60;;;;;;6226362;28;20543;-79
2022/08/25 15:47:00;;;;;;;3.65;1.17;;;35.70;35.60;;;;;;6226474;28;20068;-79
2022/08/25 15:50:07;;;;;;;1.60;1.20;;;35.30;35.90;;;;;;6226318;28;20046;-78
2022/08/25 15:53:09;;;;;;;3.05;1.00;;;35.30;36.10;;;;;;6212268;28;20057;-78
2022/08/25 15:56:16;;;;;;;3.50;1.35;;;35.40;35.90;;;;;;6202043;28;20050;-78
2022/08/25 15:59:19;;;;;;;2.35;1.38;;;35.20;36.00;;;;;;6188495;28;20629;-79
2022/08/25 16:02:21;;;;;;;1.95;1.08;;;34.90;36.10;;;;;;6177395;28;20421;-76
2022/08/25 16:05:24;;;;;;;5.05;1.70;;;34.80;36.80;;;;;;6183864;28;20046;-78
2022/08/25 16:08:25;;;;;;;1.77;1.30;;;34.50;36.90;;;;;;6194728;28;20130;-77
2022/08/25 16:11:30;;;;;;;7.20;1.27;;;34.30;37.10;;;;;;6198663;28;20050;-77
2022/08/25 16:14:32;;;;;;;2.33;1.20;;;34.00;37.20;;;;;;6202747;28;20536;-77
2022/08/25 16:17:34;;;;;;;4.68;1.38;;;33.80;37.50;;;;;;6207912;28;20047;-78
2022/08/25 16:20:37;;;;;;;2.90;1.73;;;33.70;37.60;;;;;;6205754;28;20046;-78